Paton, Iowa
Current Conditions -  °F | °C
As of 10:35 AM on Friday 24 Oct 2014 (Local Time) from KBNW Reporting Station
Moderate Fog Moderate Fog  
Wind Chill: 59°   Ceiling: 300
Heat Index: 59°   Visibility: 0.25mi
Dew Point: 59°   Wind: 10mph
Humidity: 100%   Direction: 190°S
Pressure: 29.93"   Gusts: NA
Location:  42.16°N, 94.26°W
Report Text: KBNW 241535Z AUTO 19009KT 1/4SM FG OVC003 15/15 A2993 RMK AO2
Loading
Personal Weather Stations






























Interactive Weather Map
Tropical Storm Tracking
New forecast layout! Learn more

10-Day Weather Forecast

Advertisements
Track Severe Weather on mobile